Time;durP1;ratioP1;P1;durP2;ratioP2;P2;SDS_P1;SDS_P2;PMS_P1;PMS_P2;Temp;Humidity;BMP_temperature;BMP_pressure;BME280_temperature;BME280_humidity;BME280_pressure;Samples;Min_cycle;Max_cycle;Signal;HPM_P1;HPM_P2
2023/01/23 00:02:18;;;;;;;23.45;8.98;;;2.40;99.90;;;;;;5087120;28;20051;-61
2023/01/23 00:04:44;;;;;;;21.13;8.73;;;2.50;99.90;;;;;;5086270;28;20497;-60
2023/01/23 00:07:09;;;;;;;19.98;9.00;;;2.40;99.90;;;;;;5086355;28;20127;-59
2023/01/23 00:09:35;;;;;;;19.08;8.88;;;2.40;99.90;;;;;;5086849;28;20096;-60
2023/01/23 00:12:00;;;;;;;25.95;9.40;;;2.50;99.90;;;;;;5086471;28;20051;-60
2023/01/23 00:14:26;;;;;;;19.00;8.27;;;2.40;99.90;;;;;;5086423;28;20040;-60
2023/01/23 00:16:52;;;;;;;22.23;10.02;;;2.40;99.90;;;;;;5086866;28;20028;-61
2023/01/23 00:19:19;;;;;;;21.55;10.15;;;2.50;99.90;;;;;;5086242;28;20082;-61
2023/01/23 00:21:44;;;;;;;23.55;9.95;;;2.40;99.90;;;;;;5085968;28;20036;-60
2023/01/23 00:24:11;;;;;;;28.38;9.50;;;2.40;99.90;;;;;;5096013;28;20040;-60
2023/01/23 00:26:36;;;;;;;20.92;9.45;;;2.40;99.90;;;;;;5088251;28;20111;-60
2023/01/23 00:29:03;;;;;;;21.25;9.35;;;2.40;99.90;;;;;;5085897;28;20176;-61
2023/01/23 00:31:35;;;;;;;31.05;9.52;;;2.40;99.90;;;;;;5086517;28;20047;-60
2023/01/23 00:34:03;;;;;;;20.17;9.27;;;2.50;99.90;;;;;;5088518;28;20084;-61
2023/01/23 00:36:31;;;;;;;18.05;9.27;;;2.40;99.90;;;;;;5092344;28;20609;-60
2023/01/23 00:38:57;;;;;;;20.23;8.82;;;2.40;99.90;;;;;;5068175;28;20040;-60
2023/01/23 00:41:23;;;;;;;20.30;9.45;;;2.40;99.90;;;;;;5050921;28;20561;-60
2023/01/23 00:43:50;;;;;;;22.85;8.85;;;2.40;99.90;;;;;;5085967;28;20036;-61
2023/01/23 00:46:17;;;;;;;21.00;9.32;;;2.40;99.90;;;;;;5086506;28;20043;-61
2023/01/23 00:48:43;;;;;;;21.98;9.10;;;2.40;99.90;;;;;;5086550;28;20120;-60
2023/01/23 00:51:08;;;;;;;20.20;8.93;;;2.40;99.90;;;;;;5076150;28;20775;-60
2023/01/23 00:53:34;;;;;;;24.77;9.93;;;2.40;99.90;;;;;;5085884;28;20055;-62
2023/01/23 00:56:00;;;;;;;26.30;8.63;;;2.40;99.90;;;;;;5085551;28;20164;-59
2023/01/23 00:58:25;;;;;;;20.73;9.30;;;2.40;99.90;;;;;;5087637;28;20122;-61
2023/01/23 01:00:51;;;;;;;19.95;9.27;;;2.40;99.90;;;;;;5085689;28;20036;-60
2023/01/23 01:03:18;;;;;;;23.13;9.30;;;2.40;99.90;;;;;;5085360;28;20059;-60
2023/01/23 01:05:43;;;;;;;19.90;9.73;;;2.40;99.90;;;;;;5085114;28;20036;-61
2023/01/23 01:08:09;;;;;;;18.15;8.25;;;2.40;99.90;;;;;;5085620;28;20046;-60
2023/01/23 01:10:35;;;;;;;25.70;10.48;;;2.40;99.90;;;;;;5085304;28;20236;-60
2023/01/23 01:13:02;;;;;;;23.30;9.13;;;2.40;99.90;;;;;;5091931;28;20541;-62
2023/01/23 01:15:28;;;;;;;22.50;9.60;;;2.40;99.90;;;;;;5091282;28;20059;-61
2023/01/23 01:17:54;;;;;;;21.00;8.95;;;2.40;99.90;;;;;;5085263;28;20044;-60
2023/01/23 01:20:24;;;;;;;21.33;9.40;;;2.40;99.90;;;;;;5088145;28;20157;-59
2023/01/23 01:22:51;;;;;;;21.05;9.00;;;2.40;99.90;;;;;;5105430;28;20047;-60
2023/01/23 01:25:17;;;;;;;24.23;9.55;;;2.40;99.90;;;;;;5099321;28;20040;-60
2023/01/23 01:27:43;;;;;;;17.65;9.45;;;2.40;99.90;;;;;;5069169;28;20039;-60
2023/01/23 01:30:09;;;;;;;19.27;9.57;;;2.40;99.90;;;;;;5104348;28;20188;-60
2023/01/23 01:32:37;;;;;;;20.17;8.50;;;2.40;99.90;;;;;;5087185;28;20032;-59
2023/01/23 01:35:04;;;;;;;24.85;9.50;;;2.40;99.90;;;;;;5092517;28;20169;-60
2023/01/23 01:37:35;;;;;;;26.88;10.18;;;2.40;99.90;;;;;;5104337;28;20114;-59
2023/01/23 01:40:02;;;;;;;24.75;10.32;;;2.40;99.90;;;;;;5105440;28;20035;-59
2023/01/23 01:42:28;;;;;;;20.50;9.20;;;2.30;99.90;;;;;;5082618;28;20070;-59
2023/01/23 01:44:59;;;;;;;25.98;9.77;;;2.30;99.90;;;;;;5084728;28;20051;-59
2023/01/23 01:47:25;;;;;;;20.25;9.50;;;2.30;99.90;;;;;;5085314;28;20044;-61
2023/01/23 01:49:59;;;;;;;22.80;10.05;;;2.30;99.90;;;;;;5049299;28;20104;-60
2023/01/23 01:52:26;;;;;;;26.85;10.10;;;2.30;99.90;;;;;;5083968;28;20389;-60
2023/01/23 01:54:53;;;;;;;18.95;10.30;;;2.30;99.90;;;;;;5084582;28;20040;-60
2023/01/23 01:57:26;;;;;;;20.27;10.65;;;2.30;99.90;;;;;;5095055;28;20039;-60
2023/01/23 02:00:00;;;;;;;26.83;10.80;;;2.30;99.90;;;;;;5088201;28;20047;-59
2023/01/23 02:02:37;;;;;;;21.70;10.00;;;2.30;99.90;;;;;;5066806;28;20346;-60
2023/01/23 02:05:08;;;;;;;23.95;9.90;;;2.30;99.90;;;;;;5090074;28;20726;-60
2023/01/23 02:07:43;;;;;;;25.38;10.25;;;2.30;99.90;;;;;;5084559;28;20042;-60
2023/01/23 02:10:09;;;;;;;22.95;10.70;;;2.40;99.90;;;;;;5084358;28;20048;-60
2023/01/23 02:12:37;;;;;;;21.80;10.57;;;2.40;99.90;;;;;;5084387;28;20048;-59
2023/01/23 02:15:05;;;;;;;24.38;10.65;;;2.40;99.90;;;;;;5085475;28;20044;-60
2023/01/23 02:17:35;;;;;;;25.75;10.55;;;2.40;99.90;;;;;;5084846;28;20519;-60
2023/01/23 02:20:18;;;;;;;22.02;11.23;;;2.40;99.90;;;;;;5094562;28;20036;-59
2023/01/23 02:23:06;;;;;;;22.90;10.77;;;2.40;99.90;;;;;;5065607;28;20441;-59
2023/01/23 02:25:43;;;;;;;21.38;11.60;;;2.40;99.90;;;;;;5083913;28;20040;-59
2023/01/23 02:28:11;;;;;;;19.20;10.45;;;2.40;99.90;;;;;;5087125;28;20043;-60
2023/01/23 02:30:38;;;;;;;25.20;10.35;;;2.40;99.90;;;;;;5095552;28;20046;-60
2023/01/23 02:33:27;;;;;;;21.55;12.23;;;2.30;99.90;;;;;;5104637;28;20044;-60
2023/01/23 02:35:54;;;;;;;21.35;11.35;;;2.40;99.90;;;;;;5071507;28;20039;-59
2023/01/23 02:38:24;;;;;;;23.45;11.45;;;2.30;99.90;;;;;;5085511;28;20093;-60
2023/01/23 02:40:51;;;;;;;20.35;10.90;;;2.30;99.90;;;;;;5085578;28;20043;-60
2023/01/23 02:43:20;;;;;;;21.83;10.75;;;2.40;99.90;;;;;;5101396;28;20035;-59
2023/01/23 02:45:46;;;;;;;26.00;12.15;;;2.30;99.90;;;;;;5084052;28;20190;-60
2023/01/23 02:48:11;;;;;;;21.83;11.88;;;2.30;99.90;;;;;;5083959;28;20036;-59
2023/01/23 02:50:37;;;;;;;24.63;12.13;;;2.30;99.90;;;;;;5084110;28;20500;-60
2023/01/23 02:53:04;;;;;;;27.25;11.93;;;2.30;99.90;;;;;;5083199;28;20044;-59
2023/01/23 02:55:30;;;;;;;25.08;12.68;;;2.30;99.90;;;;;;5065515;28;20494;-60
2023/01/23 03:00:14;;;;;;;24.20;12.63;;;2.30;99.90;;;;;;5083549;28;20036;-60
2023/01/23 03:00:45;;;;;;;23.45;12.50;;;2.30;99.90;;;;;;5065733;28;20047;-59
2023/01/23 03:03:11;;;;;;;28.45;12.35;;;2.30;99.90;;;;;;5083523;28;20040;-59
2023/01/23 03:05:37;;;;;;;24.95;12.40;;;2.30;99.90;;;;;;5065423;28;20042;-60
2023/01/23 03:08:03;;;;;;;29.52;13.05;;;2.30;99.90;;;;;;5083493;28;20108;-60
2023/01/23 03:10:29;;;;;;;28.50;12.80;;;2.30;99.90;;;;;;5083582;28;20150;-60
2023/01/23 03:13:00;;;;;;;25.10;12.65;;;2.30;99.90;;;;;;5083725;28;20133;-61
2023/01/23 03:15:26;;;;;;;34.40;13.43;;;2.30;99.90;;;;;;5084295;28;20047;-60
2023/01/23 03:17:52;;;;;;;29.98;13.10;;;2.30;99.90;;;;;;5084086;28;20101;-59
2023/01/23 03:20:18;;;;;;;25.10;12.32;;;2.30;99.90;;;;;;5084033;28;20108;-59
2023/01/23 03:22:45;;;;;;;25.83;12.85;;;2.30;99.90;;;;;;5084073;28;20054;-59
2023/01/23 03:25:11;;;;;;;26.50;12.95;;;2.30;99.90;;;;;;5048556;28;20040;-60
2023/01/23 03:27:36;;;;;;;28.25;13.18;;;2.30;99.90;;;;;;5083899;28;20475;-60
2023/01/23 03:30:12;;;;;;;22.88;12.73;;;2.20;99.90;;;;;;5083832;28;20040;-60
2023/01/23 03:32:38;;;;;;;27.00;14.00;;;2.20;99.90;;;;;;5083604;28;20101;-60
2023/01/23 03:35:05;;;;;;;30.02;14.25;;;2.20;99.90;;;;;;5082831;28;20044;-59
2023/01/23 03:37:31;;;;;;;24.88;13.20;;;2.20;99.90;;;;;;5088193;28;20048;-60
2023/01/23 03:42:41;;;;;;;;;;;2.20;99.90;;;;;;5103612;28;20043;-60
2023/01/23 03:45:07;;;;;;;29.65;13.40;;;2.20;99.90;;;;;;5092689;28;20409;-59
2023/01/23 03:47:33;;;;;;;26.38;13.57;;;2.20;99.90;;;;;;5083253;28;20040;-60
2023/01/23 03:49:58;;;;;;;24.35;13.00;;;2.20;99.90;;;;;;5082199;28;20062;-59
2023/01/23 03:52:24;;;;;;;26.90;13.65;;;2.20;99.90;;;;;;5089051;28;20115;-60
2023/01/23 03:54:50;;;;;;;30.52;13.88;;;2.20;99.90;;;;;;5118872;28;20050;-60
2023/01/23 03:57:16;;;;;;;26.40;13.75;;;2.20;99.90;;;;;;5100162;28;20566;-60
2023/01/23 03:59:42;;;;;;;27.77;13.77;;;2.20;99.90;;;;;;5097368;28;20115;-60
2023/01/23 04:02:09;;;;;;;27.77;13.07;;;2.20;99.90;;;;;;5087285;28;20093;-60
2023/01/23 04:04:35;;;;;;;28.75;13.60;;;2.20;99.90;;;;;;5086060;28;20036;-60
2023/01/23 04:07:01;;;;;;;33.60;13.82;;;2.10;99.90;;;;;;5086822;28;20498;-60
2023/01/23 04:09:27;;;;;;;31.20;13.73;;;2.20;99.90;;;;;;5094998;28;20090;-59
2023/01/23 04:11:54;;;;;;;34.88;14.50;;;2.20;99.90;;;;;;5088654;28;20585;-60
2023/01/23 04:14:21;;;;;;;26.60;14.30;;;2.20;99.90;;;;;;5086535;28;20083;-60
2023/01/23 04:16:46;;;;;;;26.00;13.02;;;2.20;99.90;;;;;;5086981;28;20107;-60
2023/01/23 04:19:12;;;;;;;26.95;13.57;;;2.20;99.90;;;;;;5086472;28;20704;-59
2023/01/23 04:21:38;;;;;;;28.58;13.52;;;2.20;99.90;;;;;;5086507;28;20046;-59
2023/01/23 04:24:04;;;;;;;26.80;13.52;;;2.20;99.90;;;;;;5086226;28;20048;-60
2023/01/23 04:26:29;;;;;;;27.45;13.23;;;2.20;99.90;;;;;;5119164;27;20140;-60
2023/01/23 04:28:55;;;;;;;26.15;13.48;;;2.20;99.90;;;;;;5091145;28;20044;-61
2023/01/23 04:31:20;;;;;;;27.55;13.48;;;2.20;99.90;;;;;;5106729;28;20428;-60
2023/01/23 04:33:46;;;;;;;27.17;13.20;;;2.20;99.90;;;;;;5104419;28;20036;-60
2023/01/23 04:36:12;;;;;;;26.00;12.85;;;2.20;99.90;;;;;;5086331;28;20082;-59
2023/01/23 04:38:37;;;;;;;25.55;12.32;;;2.20;99.90;;;;;;5119567;27;20366;-61
2023/01/23 04:41:03;;;;;;;23.83;12.48;;;2.20;99.90;;;;;;5086084;28;20036;-60
2023/01/23 04:43:29;;;;;;;26.42;12.32;;;2.10;99.90;;;;;;5135849;27;20039;-61
2023/01/23 04:45:55;;;;;;;33.35;12.82;;;2.10;99.90;;;;;;5089943;28;20093;-60
2023/01/23 04:48:22;;;;;;;21.52;11.20;;;2.10;99.90;;;;;;5086465;28;20040;-61
2023/01/23 04:50:48;;;;;;;23.65;12.45;;;2.10;99.90;;;;;;5096688;28;20232;-61
2023/01/23 04:53:14;;;;;;;21.00;11.98;;;2.20;99.90;;;;;;5085580;28;20474;-61
2023/01/23 04:55:40;;;;;;;24.67;11.48;;;2.20;99.90;;;;;;5085337;28;20439;-60
2023/01/23 04:58:05;;;;;;;23.48;11.63;;;2.20;99.90;;;;;;5089462;28;20043;-62
2023/01/23 05:00:31;;;;;;;25.45;12.32;;;2.20;99.90;;;;;;5067736;28;20043;-61
2023/01/23 05:02:57;;;;;;;22.50;11.68;;;2.20;99.90;;;;;;5085880;28;20051;-60
2023/01/23 05:05:23;;;;;;;26.90;11.98;;;2.20;99.90;;;;;;5095536;28;20085;-60
2023/01/23 05:07:50;;;;;;;24.52;10.95;;;2.20;99.90;;;;;;5085715;28;20089;-60
2023/01/23 05:10:16;;;;;;;24.00;10.80;;;2.20;99.90;;;;;;5088720;28;20181;-61
2023/01/23 05:12:42;;;;;;;21.13;11.43;;;2.10;99.90;;;;;;5105775;28;20043;-61
2023/01/23 05:15:09;;;;;;;26.45;12.07;;;2.20;99.90;;;;;;5095293;28;20070;-60
2023/01/23 05:17:35;;;;;;;21.00;11.45;;;2.20;99.90;;;;;;5085452;28;20706;-60
2023/01/23 05:20:01;;;;;;;24.27;11.10;;;2.20;99.90;;;;;;5085159;28;20042;-61
2023/01/23 05:22:26;;;;;;;23.33;11.20;;;2.10;99.90;;;;;;5105339;28;20031;-61
2023/01/23 05:24:52;;;;;;;20.75;11.32;;;2.20;99.90;;;;;;5105548;28;20053;-60
2023/01/23 05:27:17;;;;;;;28.33;11.38;;;2.20;99.90;;;;;;5104458;28;20486;-60
2023/01/23 05:29:43;;;;;;;24.77;12.02;;;2.20;99.90;;;;;;5085829;28;20040;-61
2023/01/23 05:32:09;;;;;;;21.45;11.10;;;2.20;99.90;;;;;;5085279;28;20050;-61
2023/01/23 05:34:34;;;;;;;23.02;12.18;;;2.20;99.90;;;;;;5084460;28;20172;-61
2023/01/23 05:37:00;;;;;;;23.67;11.77;;;2.20;99.90;;;;;;5084695;28;20079;-61
2023/01/23 05:39:25;;;;;;;26.00;12.15;;;2.20;99.90;;;;;;5086112;28;20031;-60
2023/01/23 05:41:51;;;;;;;22.65;12.32;;;2.20;99.90;;;;;;5086808;28;20554;-60
2023/01/23 05:44:16;;;;;;;21.95;11.88;;;2.20;99.90;;;;;;5102113;28;20047;-61
2023/01/23 05:46:42;;;;;;;24.67;12.50;;;2.20;99.90;;;;;;5085327;28;20090;-61
2023/01/23 05:49:07;;;;;;;26.38;12.13;;;2.20;99.90;;;;;;5066527;28;20491;-62
2023/01/23 05:51:33;;;;;;;22.77;10.75;;;2.20;99.90;;;;;;5084480;28;20036;-61
2023/01/23 05:54:00;;;;;;;25.67;12.52;;;2.20;99.90;;;;;;5084141;28;20036;-61
2023/01/23 05:56:26;;;;;;;25.77;11.60;;;2.10;99.90;;;;;;5087945;28;20514;-60
2023/01/23 05:58:52;;;;;;;21.27;11.60;;;2.10;99.90;;;;;;5086976;28;20043;-61
2023/01/23 06:01:18;;;;;;;27.45;12.55;;;2.10;99.90;;;;;;5085377;28;20051;-59
2023/01/23 06:03:45;;;;;;;25.05;11.70;;;2.10;99.90;;;;;;5093511;28;20059;-61
2023/01/23 06:06:10;;;;;;;25.60;12.10;;;2.10;99.90;;;;;;5084003;28;20047;-60
2023/01/23 06:08:36;;;;;;;25.17;12.55;;;2.00;99.90;;;;;;5085109;27;20035;-61
2023/01/23 06:11:02;;;;;;;27.90;11.85;;;2.00;99.90;;;;;;5101854;27;20490;-61
2023/01/23 06:13:27;;;;;;;24.67;12.52;;;2.00;99.90;;;;;;5103893;28;20043;-60
2023/01/23 06:15:54;;;;;;;26.70;12.57;;;2.00;99.90;;;;;;5088788;28;20089;-61
2023/01/23 06:18:20;;;;;;;28.42;11.90;;;2.00;99.90;;;;;;5089247;28;20120;-61
2023/01/23 06:20:45;;;;;;;26.45;12.18;;;2.00;99.90;;;;;;5087535;28;20047;-60
2023/01/23 06:23:11;;;;;;;27.67;12.65;;;2.00;99.90;;;;;;5083694;28;20055;-60
2023/01/23 06:25:37;;;;;;;29.75;13.25;;;2.00;99.90;;;;;;5085436;28;20538;-61
2023/01/23 06:28:03;;;;;;;27.58;12.73;;;2.00;99.90;;;;;;5086355;28;20514;-61
2023/01/23 06:30:29;;;;;;;27.75;12.63;;;2.00;99.90;;;;;;5091630;28;20090;-61
2023/01/23 06:32:54;;;;;;;27.50;12.80;;;2.00;99.90;;;;;;5084415;28;20479;-61
2023/01/23 06:35:20;;;;;;;28.63;12.55;;;2.00;99.90;;;;;;5083590;28;20639;-61
2023/01/23 06:37:46;;;;;;;22.88;12.20;;;2.00;99.90;;;;;;5084211;28;20414;-60
2023/01/23 06:40:12;;;;;;;23.60;12.57;;;2.00;99.90;;;;;;5090383;28;20084;-61
2023/01/23 06:42:39;;;;;;;25.90;11.75;;;2.00;99.90;;;;;;5085141;28;20243;-60
2023/01/23 06:45:06;;;;;;;26.27;12.55;;;2.00;99.90;;;;;;5094371;28;20044;-61
2023/01/23 06:47:32;;;;;;;23.02;12.07;;;2.00;99.90;;;;;;5094898;28;20031;-60
2023/01/23 06:49:57;;;;;;;26.08;12.90;;;2.00;99.90;;;;;;5094476;28;20048;-60
2023/01/23 06:52:23;;;;;;;32.05;13.70;;;2.00;99.90;;;;;;5103711;28;20590;-60
2023/01/23 06:54:49;;;;;;;28.17;12.63;;;2.00;99.90;;;;;;5102634;28;20580;-59
2023/01/23 06:57:14;;;;;;;24.60;12.15;;;2.00;99.90;;;;;;5101162;28;20567;-60
2023/01/23 06:59:40;;;;;;;26.77;12.50;;;2.00;99.90;;;;;;5089276;28;20031;-62
2023/01/23 07:02:07;;;;;;;27.35;12.38;;;1.90;99.90;;;;;;5104484;28;20036;-60
2023/01/23 07:04:33;;;;;;;27.42;11.82;;;1.90;99.90;;;;;;5093004;28;20036;-59
2023/01/23 07:06:58;;;;;;;28.08;12.10;;;1.90;99.90;;;;;;5083737;28;20066;-60
2023/01/23 07:09:24;;;;;;;24.02;11.73;;;1.90;99.90;;;;;;5084575;28;20032;-60
2023/01/23 07:11:49;;;;;;;25.70;12.35;;;1.90;99.90;;;;;;5099944;28;20645;-60
2023/01/23 07:14:15;;;;;;;30.02;13.25;;;1.90;99.90;;;;;;5088697;28;20472;-62
2023/01/23 07:16:40;;;;;;;26.20;12.20;;;1.90;99.90;;;;;;5104417;28;20063;-61
2023/01/23 07:19:06;;;;;;;22.08;12.68;;;1.90;99.90;;;;;;5101028;28;20031;-60
2023/01/23 07:21:32;;;;;;;24.88;11.80;;;1.90;99.90;;;;;;5083816;28;20028;-60
2023/01/23 07:23:58;;;;;;;23.15;11.85;;;1.90;99.90;;;;;;5083678;28;20394;-60
2023/01/23 07:26:24;;;;;;;19.88;11.35;;;1.90;99.90;;;;;;5083425;28;20043;-60
2023/01/23 07:28:49;;;;;;;25.20;12.35;;;1.90;99.90;;;;;;5116447;27;20048;-61
2023/01/23 07:31:15;;;;;;;18.30;11.07;;;1.90;99.90;;;;;;5082835;28;20036;-60
2023/01/23 07:33:40;;;;;;;25.95;11.27;;;1.90;99.90;;;;;;5082781;28;20492;-60
2023/01/23 07:36:07;;;;;;;21.38;10.93;;;2.00;99.90;;;;;;5086115;28;20148;-60
2023/01/23 07:38:33;;;;;;;22.30;11.02;;;1.90;99.90;;;;;;5087926;28;20032;-60
2023/01/23 07:40:58;;;;;;;19.73;10.68;;;1.90;99.90;;;;;;5086987;28;20116;-60
2023/01/23 07:43:25;;;;;;;19.17;10.68;;;1.90;99.90;;;;;;5098093;28;20051;-60
2023/01/23 07:45:50;;;;;;;19.25;10.70;;;1.90;99.90;;;;;;5087861;28;20557;-60
2023/01/23 07:48:16;;;;;;;23.27;10.43;;;1.90;99.90;;;;;;5120133;27;20044;-61
2023/01/23 07:50:42;;;;;;;21.60;11.52;;;2.00;99.90;;;;;;5087289;28;20044;-61
2023/01/23 07:53:07;;;;;;;19.60;10.98;;;2.00;99.90;;;;;;5086276;28;20048;-61
2023/01/23 07:55:36;;;;;;;19.48;10.27;;;2.00;99.90;;;;;;5087188;28;20051;-60
2023/01/23 07:58:01;;;;;;;20.58;10.40;;;2.00;99.90;;;;;;5086711;28;20047;-62
2023/01/23 08:00:28;;;;;;;20.02;10.63;;;2.00;99.90;;;;;;5087361;28;20032;-61
2023/01/23 08:02:54;;;;;;;22.90;10.68;;;2.00;99.90;;;;;;5068981;28;20087;-61
2023/01/23 08:05:19;;;;;;;22.27;10.63;;;2.00;99.90;;;;;;5069182;28;20074;-60
2023/01/23 08:07:45;;;;;;;24.25;10.77;;;2.00;99.90;;;;;;5086592;28;20134;-61
2023/01/23 08:10:11;;;;;;;20.25;10.07;;;2.00;99.90;;;;;;5086823;28;20028;-60
2023/01/23 08:12:36;;;;;;;18.90;9.75;;;2.00;99.90;;;;;;5086499;28;20048;-60
2023/01/23 08:15:02;;;;;;;19.15;9.88;;;2.00;99.90;;;;;;5087371;28;20039;-60
2023/01/23 08:17:28;;;;;;;28.15;10.27;;;2.10;99.90;;;;;;5069070;28;20131;-61
2023/01/23 08:19:53;;;;;;;21.10;9.52;;;2.10;99.90;;;;;;5094875;28;20036;-59
2023/01/23 08:22:19;;;;;;;16.58;8.23;;;2.10;99.90;;;;;;5087750;28;20032;-60
2023/01/23 08:24:44;;;;;;;17.92;9.30;;;2.10;99.90;;;;;;5106174;28;20048;-59
2023/01/23 08:27:10;;;;;;;17.40;9.13;;;2.10;99.90;;;;;;5103687;28;20035;-60
2023/01/23 08:29:36;;;;;;;18.48;9.45;;;2.10;99.90;;;;;;5101189;28;20044;-60
2023/01/23 08:32:01;;;;;;;20.33;9.90;;;2.20;99.90;;;;;;5106605;28;20091;-60
2023/01/23 08:34:27;;;;;;;15.57;8.65;;;2.20;99.90;;;;;;5083392;28;20036;-60
2023/01/23 08:36:52;;;;;;;19.02;9.02;;;2.20;99.90;;;;;;5068295;28;20399;-60
2023/01/23 08:39:19;;;;;;;18.98;8.85;;;2.20;99.90;;;;;;5098321;28;20031;-60
2023/01/23 08:41:45;;;;;;;13.73;7.05;;;2.30;99.90;;;;;;5106140;28;20043;-61
2023/01/23 08:44:11;;;;;;;18.10;8.57;;;2.30;99.90;;;;;;5074245;28;20689;-63
2023/01/23 08:46:36;;;;;;;17.67;8.45;;;2.30;99.90;;;;;;5085789;28;20130;-62
2023/01/23 08:49:03;;;;;;;13.80;7.88;;;2.40;99.90;;;;;;5085763;28;20052;-62
2023/01/23 08:51:29;;;;;;;17.17;8.77;;;2.40;99.90;;;;;;5068488;28;20132;-61
2023/01/23 08:53:55;;;;;;;16.40;8.27;;;2.40;99.90;;;;;;5087451;28;20047;-61
2023/01/23 08:56:22;;;;;;;17.33;8.18;;;2.40;99.90;;;;;;5088213;28;20043;-61
2023/01/23 08:58:48;;;;;;;20.00;8.70;;;2.40;99.90;;;;;;5096362;28;20274;-62
2023/01/23 09:01:17;;;;;;;15.68;8.27;;;2.40;99.90;;;;;;5086254;28;20193;-61
2023/01/23 09:03:43;;;;;;;15.02;7.82;;;2.40;99.90;;;;;;5088475;28;20028;-61
2023/01/23 09:06:13;;;;;;;15.10;7.93;;;2.40;99.90;;;;;;5086051;28;20048;-61
2023/01/23 09:08:38;;;;;;;11.82;7.05;;;2.50;99.90;;;;;;5086671;28;20074;-61
2023/01/23 09:11:06;;;;;;;16.52;7.68;;;2.50;99.90;;;;;;5095346;28;20040;-62
2023/01/23 09:13:32;;;;;;;18.13;7.75;;;2.50;99.90;;;;;;5068261;28;20036;-61
2023/01/23 09:15:58;;;;;;;14.02;7.70;;;2.50;99.90;;;;;;5085779;28;20047;-60
2023/01/23 09:18:24;;;;;;;12.85;7.82;;;2.60;99.90;;;;;;5067146;28;20041;-61
2023/01/23 09:20:51;;;;;;;15.10;6.80;;;2.60;99.90;;;;;;5067139;28;20062;-61
2023/01/23 09:23:17;;;;;;;14.43;7.75;;;2.60;99.90;;;;;;5083702;28;20044;-61
2023/01/23 09:25:43;;;;;;;15.85;8.10;;;2.60;99.90;;;;;;5085280;28;20043;-61
2023/01/23 09:28:08;;;;;;;14.23;8.05;;;2.60;99.90;;;;;;5085146;28;20039;-61
2023/01/23 09:30:34;;;;;;;14.93;7.97;;;2.70;99.90;;;;;;5085738;28;20036;-62
2023/01/23 09:33:00;;;;;;;14.35;8.25;;;2.70;99.90;;;;;;5066894;28;20054;-62
2023/01/23 09:35:25;;;;;;;16.00;7.95;;;2.70;99.90;;;;;;5097994;28;20119;-61
2023/01/23 09:38:00;;;;;;;13.10;7.63;;;2.70;99.90;;;;;;5105202;28;20136;-62
2023/01/23 09:40:44;;;;;;;12.90;7.95;;;2.70;99.90;;;;;;5071265;28;20479;-62
2023/01/23 09:43:21;;;;;;;13.18;7.18;;;2.70;99.90;;;;;;5085237;28;20032;-62
2023/01/23 09:45:59;;;;;;;14.68;7.80;;;2.70;99.90;;;;;;5066919;28;20082;-61
2023/01/23 09:48:44;;;;;;;13.10;7.30;;;2.70;99.90;;;;;;5084908;28;20121;-61
2023/01/23 09:51:12;;;;;;;14.93;7.68;;;2.80;99.90;;;;;;5084663;28;20039;-61
2023/01/23 09:53:40;;;;;;;17.60;7.93;;;2.80;99.90;;;;;;5096814;28;20158;-60
2023/01/23 09:56:26;;;;;;;17.13;7.03;;;2.80;99.90;;;;;;5083714;28;20040;-62
2023/01/23 09:59:09;;;;;;;14.93;8.20;;;2.80;99.90;;;;;;5083445;28;20040;-62
2023/01/23 10:01:36;;;;;;;13.93;7.80;;;2.90;99.90;;;;;;5103096;28;20035;-61
2023/01/23 10:04:03;;;;;;;16.77;7.68;;;2.90;99.90;;;;;;5100731;28;20063;-61
2023/01/23 10:06:33;;;;;;;12.95;7.78;;;2.90;99.90;;;;;;5116866;27;20050;-62
2023/01/23 10:09:19;;;;;;;15.85;8.25;;;2.90;99.90;;;;;;5084027;28;20611;-62
2023/01/23 10:12:11;;;;;;;13.43;8.02;;;3.00;99.90;;;;;;5099682;28;20044;-61
2023/01/23 10:15:04;;;;;;;15.30;9.05;;;3.00;99.90;;;;;;5120169;27;20740;-62
2023/01/23 10:18:09;;;;;;;16.70;7.97;;;3.00;99.90;;;;;;5081119;28;20040;-61
2023/01/23 10:20:41;;;;;;;12.88;7.60;;;3.00;99.90;;;;;;5076575;28;20167;-62
2023/01/23 10:23:24;;;;;;;15.63;8.25;;;3.10;99.90;;;;;;5087840;28;20047;-61
2023/01/23 10:25:50;;;;;;;14.07;7.97;;;3.10;99.90;;;;;;5082510;28;20131;-61
2023/01/23 10:28:40;;;;;;;17.42;9.15;;;3.10;99.90;;;;;;5078860;28;20193;-62
2023/01/23 10:31:26;;;;;;;16.40;8.85;;;3.20;99.90;;;;;;5095417;27;20046;-62
2023/01/23 10:34:15;;;;;;;18.25;8.80;;;3.20;99.90;;;;;;5107896;27;20083;-62
2023/01/23 10:36:56;;;;;;;15.02;8.68;;;3.20;99.90;;;;;;5082173;28;20090;-62
2023/01/23 10:39:27;;;;;;;18.13;9.10;;;3.20;99.90;;;;;;5090647;28;20032;-62
2023/01/23 10:41:52;;;;;;;17.00;9.50;;;3.20;99.90;;;;;;5089570;28;20322;-61
2023/01/23 10:44:20;;;;;;;15.48;9.73;;;3.20;99.90;;;;;;5083865;28;20052;-61
2023/01/23 10:46:53;;;;;;;20.63;10.88;;;3.20;99.90;;;;;;5082375;28;20370;-62
2023/01/23 10:49:41;;;;;;;20.17;9.77;;;3.20;99.90;;;;;;5083424;28;20046;-61
2023/01/23 10:52:30;;;;;;;18.05;10.95;;;3.20;99.90;;;;;;5083218;28;20079;-61
2023/01/23 10:54:55;;;;;;;18.35;10.85;;;3.20;99.90;;;;;;5083104;28;20051;-62
2023/01/23 10:57:25;;;;;;;20.98;11.18;;;3.20;99.90;;;;;;5077267;28;20051;-61
2023/01/23 10:59:57;;;;;;;22.75;11.98;;;3.20;99.90;;;;;;5086028;28;20407;-61
2023/01/23 11:02:28;;;;;;;19.85;10.73;;;3.30;99.90;;;;;;5084767;28;20380;-61
2023/01/23 11:04:54;;;;;;;19.88;11.32;;;3.30;99.90;;;;;;5071764;28;20066;-61
2023/01/23 11:07:28;;;;;;;24.48;13.27;;;3.20;99.90;;;;;;5100926;28;20039;-62
2023/01/23 11:09:55;;;;;;;;;;;3.20;99.90;;;;;;5106766;28;20062;-62
2023/01/23 11:12:22;;;;;;;20.02;11.85;;;3.20;99.90;;;;;;5107800;28;19915;-61
2023/01/23 11:14:49;;;;;;;21.23;12.93;;;3.20;99.90;;;;;;5075859;28;20052;-62
2023/01/23 11:17:17;;;;;;;24.23;12.13;;;3.20;99.90;;;;;;5108090;28;20043;-60
2023/01/23 11:19:45;;;;;;;25.10;12.48;;;3.30;99.90;;;;;;5106305;28;20031;-62
2023/01/23 11:22:36;;;;;;;22.80;12.27;;;3.30;99.90;;;;;;5107219;28;20410;-62
2023/01/23 11:25:27;;;;;;;23.70;13.02;;;3.30;99.90;;;;;;5087433;28;20040;-60
2023/01/23 11:27:59;;;;;;;25.88;12.98;;;3.30;99.90;;;;;;5106729;28;20051;-61
2023/01/23 11:30:35;;;;;;;28.80;13.50;;;3.30;99.90;;;;;;5097751;28;20036;-60
2023/01/23 11:33:23;;;;;;;25.48;12.30;;;3.30;99.90;;;;;;5100323;28;20111;-61
2023/01/23 11:36:01;;;;;;;22.52;11.70;;;3.40;99.90;;;;;;5088978;28;20135;-61
2023/01/23 11:38:35;;;;;;;22.77;12.55;;;3.40;99.90;;;;;;5089018;28;20111;-60
2023/01/23 11:41:03;;;;;;;24.60;12.32;;;3.40;99.90;;;;;;5068243;28;20044;-61
2023/01/23 11:43:28;;;;;;;23.88;13.05;;;3.40;99.90;;;;;;5086924;28;20075;-61
2023/01/23 11:46:15;;;;;;;26.38;12.90;;;3.40;99.90;;;;;;5069188;28;20094;-60
2023/01/23 11:48:55;;;;;;;20.80;12.35;;;3.50;99.90;;;;;;5086474;28;20051;-61
2023/01/23 11:51:29;;;;;;;23.45;13.13;;;3.50;99.90;;;;;;5034804;28;20055;-62
2023/01/23 11:54:16;;;;;;;22.05;11.93;;;3.50;99.90;;;;;;5065925;28;20244;-62
2023/01/23 11:56:55;;;;;;;27.20;13.65;;;3.50;99.90;;;;;;5066814;28;20049;-63
2023/01/23 11:59:39;;;;;;;21.55;12.55;;;3.50;99.90;;;;;;5069315;28;20040;-61
2023/01/23 12:02:11;;;;;;;27.52;12.25;;;3.50;99.90;;;;;;5084825;28;20310;-61
2023/01/23 12:05:20;;;;;;;20.25;11.60;;;3.40;99.90;;;;;;5082764;28;20309;-60
2023/01/23 12:08:07;;;;;;;23.60;12.52;;;3.40;99.90;;;;;;5066056;28;20444;-62
2023/01/23 12:10:46;;;;;;;26.83;12.98;;;3.40;99.90;;;;;;5085251;28;20043;-62
2023/01/23 12:13:24;;;;;;;20.77;12.02;;;3.40;99.90;;;;;;5065088;28;20033;-60
2023/01/23 12:16:18;;;;;;;20.63;12.02;;;3.30;99.90;;;;;;5064158;28;20100;-62
2023/01/23 12:19:04;;;;;;;21.35;12.27;;;3.30;99.90;;;;;;5085563;28;20040;-61
2023/01/23 12:21:40;;;;;;;25.55;14.82;;;3.30;99.90;;;;;;5081863;28;20043;-61
2023/01/23 12:24:25;;;;;;;23.92;13.27;;;3.30;99.90;;;;;;5082119;28;20498;-61
2023/01/23 12:26:56;;;;;;;28.02;14.85;;;3.30;99.90;;;;;;5085374;28;20603;-61
2023/01/23 12:30:00;;;;;;;20.92;13.68;;;3.30;99.90;;;;;;5064955;28;20765;-61
2023/01/23 12:32:51;;;;;;;22.63;13.18;;;3.30;99.90;;;;;;5043920;28;20324;-62
2023/01/23 12:35:44;;;;;;;22.30;12.60;;;3.30;99.90;;;;;;5071888;28;20566;-62
2023/01/23 12:38:21;;;;;;;24.55;12.98;;;3.30;99.90;;;;;;5035066;28;20122;-61
2023/01/23 12:41:06;;;;;;;26.60;13.77;;;3.30;99.90;;;;;;5083203;28;20048;-62
2023/01/23 12:43:37;;;;;;;22.83;12.95;;;3.30;99.90;;;;;;5080347;28;20043;-62
2023/01/23 12:46:38;;;;;;;23.70;12.02;;;3.30;99.90;;;;;;5083973;28;20778;-62
2023/01/23 12:49:23;;;;;;;19.15;10.77;;;3.30;99.90;;;;;;5082787;28;20032;-62
2023/01/23 12:51:58;;;;;;;19.17;10.80;;;3.30;99.90;;;;;;5050345;28;20150;-62
2023/01/23 12:54:34;;;;;;;19.15;10.35;;;3.30;99.90;;;;;;5086737;28;20338;-62
2023/01/23 12:57:02;;;;;;;19.20;11.10;;;3.30;99.90;;;;;;5084954;28;20036;-62